Astrid Conroy — ZGAQ5 — position and weather

sailwx.info

Track history (hours):
 
Tides and Currents Weather Stations Pressure Air Temp Water Temp Dewpoint Dewpoint Depression Visibility Wind Speed Wind Dir Waves Ship Positions

Astrid Conroy

Last reported at 2016-Aug-26 02:29 UTC. Time now 2016-Aug-26 03:14 UTC.
Position N 43°24' E 008°25'.

Length 58 m; draft 3.5 m.

Type: Pleasure craft. MMSI: 319031500.

Date/timePositionNaut miles runAvg speedWind from/ knotsBaromVisibWave heightAir tempDewpointWater temp
2016-Aug-26 02:29N 43°24' E 008°25'1212.8
2016-Aug-26 01:33N 43°22' E 008°41'1313.2
2016-Aug-26 00:33N 43°19' E 008°59'1313.2
2016-Aug-25 23:34N 43°16' E 009°16'1211.5
2016-Aug-25 22:33N 43°13' E 009°32'1313.2
2016-Aug-25 21:33N 43°10' E 009°49'1313.1
2016-Aug-25 20:33N 43°04' E 010°06'1414.0
2016-Aug-25 19:32N 42°57' E 010°22'4 0.2
2016-Aug-25 04:10N 42°56' E 010°27'914.2
2016-Aug-25 03:33N 43°01' E 010°17'1413.8
2016-Aug-25 02:34N 43°10' E 010°03'1413.9
2016-Aug-25 01:33N 43°18' E 009°47'1211.7
2016-Aug-25 00:34N 43°30' E 009°44'1414.3
2016-Aug-24 23:33N 43°43' E 009°50'1414.2
2016-Aug-24 22:34N 43°54' E 010°03'6 5.4
2016-Aug-24 21:29N 43°58' E 010°08'0 0.0
2016-Aug-24 20:26N 43°58' E 010°08'0 0.0
2016-Aug-24 19:32N 43°58' E 010°08'0 0.0
2016-Aug-24 18:32N 43°58' E 010°08'0 0.0
2016-Aug-24 17:32N 43°58' E 010°08'0 0.0
2016-Aug-24 16:32N 43°58' E 010°08'0 0.0
2016-Aug-24 15:32N 43°58' E 010°08'0 0.0
2016-Aug-24 14:32N 43°58' E 010°08'1110.9
2016-Aug-24 13:33N 43°58' E 009°54'1716.7
2016-Aug-24 12:33N 44°08' E 009°35'1616.4
2016-Aug-24 11:34N 44°17' E 009°17'3 1.5
2016-Aug-24 09:27N 44°19' E 009°13'0 0.0
2016-Aug-24 06:33N 44°19' E 009°13'0 0.0
2016-Aug-24 04:06N 44°19' E 009°13'0 0.0
2016-Aug-24 03:09N 44°19' E 009°13'0 0.0
2016-Aug-24 02:24N 44°19' E 009°13'0 0.0
2016-Aug-24 01:33N 44°19' E 009°13'0 0.0
2016-Aug-23 23:32N 44°19' E 009°13'0 0.0
2016-Aug-23 22:27N 44°19' E 009°13'0 0.0
2016-Aug-23 18:29N 44°19' E 009°13'0 0.0
2016-Aug-23 16:30N 44°19' E 009°13'0 0.0
2016-Aug-23 15:24N 44°19' E 009°13'0 0.0
2016-Aug-23 14:30N 44°19' E 009°13'0 0.0
2016-Aug-23 13:15N 44°19' E 009°13'5 7.5
2016-Aug-23 12:33N 44°17' E 009°20'8 1.6
2016-Aug-23 07:34N 44°13' E 009°29'1313.4
2016-Aug-23 06:34N 44°03' E 009°42'6 5.9
2016-Aug-23 05:34N 44°03' E 009°51'0 0.0
2016-Aug-23 04:31N 44°03' E 009°51'0 0.0
2016-Aug-23 03:31N 44°03' E 009°51'0 0.0
2016-Aug-23 02:28N 44°03' E 009°51'0 0.0
2016-Aug-23 01:31N 44°03' E 009°51'0 0.0
2016-Aug-23 00:31N 44°03' E 009°51'0 0.0
2016-Aug-22 23:31N 44°03' E 009°51'0 0.0
2016-Aug-22 22:31N 44°03' E 009°51'0 0.0
2016-Aug-22 21:28N 44°03' E 009°51'0 0.0
2016-Aug-22 20:31N 44°03' E 009°51'0 0.0
2016-Aug-22 19:31N 44°03' E 009°51'0 0.0
2016-Aug-22 18:31N 44°03' E 009°51'0 0.0
2016-Aug-22 17:31N 44°03' E 009°51'0 0.0
2016-Aug-22 16:31N 44°03' E 009°51'0 0.0
2016-Aug-22 15:31N 44°03' E 009°51'0 0.0
2016-Aug-22 14:22N 44°03' E 009°51'0 0.0
2016-Aug-22 13:31N 44°03' E 009°51'0 0.0
2016-Aug-22 12:31N 44°03' E 009°51'0 0.0
2016-Aug-22 11:31N 44°03' E 009°51'0 0.0
2016-Aug-22 10:31N 44°03' E 009°51'0 0.0
2016-Aug-22 09:31N 44°03' E 009°51'0 0.0
2016-Aug-22 08:31N 44°03' E 009°51'0 0.0
2016-Aug-22 07:31N 44°03' E 009°51'0 0.2
2016-Aug-22 06:33N 44°03' E 009°51'7 7.0
2016-Aug-22 05:34N 43°57' E 009°55'1313.3
2016-Aug-22 04:34N 43°44' E 009°48'1212.2
2016-Aug-22 03:33N 43°32' E 009°45'1211.8
2016-Aug-22 02:34N 43°21' E 009°46'1212.0
2016-Aug-22 01:34N 43°10' E 009°55'2511.7
2016-Aug-21 23:26N 42°56' E 010°23'1211.6
2016-Aug-21 22:26N 42°49' E 010°35'104 4.3
2016-Aug-20 22:33N 41°29' E 012°04'2813.6
2016-Aug-20 20:27N 41°07' E 012°28'5412.7
2016-Aug-20 16:13N 40°43' E 013°31'913.2
2016-Aug-20 15:34N 40°41' E 013°42'1312.8
2016-Aug-20 14:32N 40°39' E 013°60'1313.2
2016-Aug-20 13:33N 40°40' E 014°17'7 6.3
2016-Aug-20 12:28N 40°40' E 014°26'0 0.3
2016-Aug-20 11:32N 40°40' E 014°26'3 3.0
2016-Aug-20 10:23N 40°43' E 014°28'0 0.0
2016-Aug-20 09:17N 40°43' E 014°28'0 0.0
2016-Aug-20 08:29N 40°43' E 014°28'0 0.0
2016-Aug-20 07:29N 40°43' E 014°28'0 0.0
2016-Aug-20 06:29N 40°43' E 014°28'9 9.8
2016-Aug-20 05:33N 40°38' E 014°19'6 5.8
2016-Aug-20 04:31N 40°32' E 014°15'0 0.0
2016-Aug-20 03:32N 40°32' E 014°15'0 0.0
2016-Aug-20 02:31N 40°32' E 014°15'0 0.0
2016-Aug-20 00:31N 40°32' E 014°15'0 0.0
2016-Aug-19 23:31N 40°32' E 014°15'0 0.0
2016-Aug-19 22:32N 40°32' E 014°15'0 0.0
2016-Aug-19 21:28N 40°32' E 014°15'0 0.0
2016-Aug-19 20:28N 40°32' E 014°15'0 0.0
2016-Aug-19 17:28N 40°32' E 014°15'  
Track history (hours):
 
Tides and Currents Weather Stations Pressure Air Temp Water Temp Dewpoint Dewpoint Depression Visibility Wind Speed Wind Dir Waves Ship Positions

Astrid Conroy

Last reported at 2016-Aug-26 02:29 UTC. Time now 2016-Aug-26 03:14 UTC.
Position N 43°24' E 008°25'.

Length 58 m; draft 3.5 m.

Type: Pleasure craft. MMSI: 319031500.

Date/timePositionNaut miles runAvg speedWind from/ knotsBaromVisibWave heightAir tempDewpointWater temp
2016-Aug-26 02:29N 43°24' E 008°25'1212.8
2016-Aug-26 01:33N 43°22' E 008°41'1313.2
2016-Aug-26 00:33N 43°19' E 008°59'1313.2
2016-Aug-25 23:34N 43°16' E 009°16'1211.5
2016-Aug-25 22:33N 43°13' E 009°32'1313.2
2016-Aug-25 21:33N 43°10' E 009°49'1313.1
2016-Aug-25 20:33N 43°04' E 010°06'1414.0
2016-Aug-25 19:32N 42°57' E 010°22'4 0.2
2016-Aug-25 04:10N 42°56' E 010°27'914.2
2016-Aug-25 03:33N 43°01' E 010°17'1413.8
2016-Aug-25 02:34N 43°10' E 010°03'1413.9
2016-Aug-25 01:33N 43°18' E 009°47'1211.7
2016-Aug-25 00:34N 43°30' E 009°44'1414.3
2016-Aug-24 23:33N 43°43' E 009°50'1414.2
2016-Aug-24 22:34N 43°54' E 010°03'6 5.4
2016-Aug-24 21:29N 43°58' E 010°08'0 0.0
2016-Aug-24 20:26N 43°58' E 010°08'0 0.0
2016-Aug-24 19:32N 43°58' E 010°08'0 0.0
2016-Aug-24 18:32N 43°58' E 010°08'0 0.0
2016-Aug-24 17:32N 43°58' E 010°08'0 0.0
2016-Aug-24 16:32N 43°58' E 010°08'0 0.0
2016-Aug-24 15:32N 43°58' E 010°08'0 0.0
2016-Aug-24 14:32N 43°58' E 010°08'1110.9
2016-Aug-24 13:33N 43°58' E 009°54'1716.7
2016-Aug-24 12:33N 44°08' E 009°35'1616.4
2016-Aug-24 11:34N 44°17' E 009°17'3 1.5
2016-Aug-24 09:27N 44°19' E 009°13'0 0.0
2016-Aug-24 06:33N 44°19' E 009°13'0 0.0
2016-Aug-24 04:06N 44°19' E 009°13'0 0.0
2016-Aug-24 03:09N 44°19' E 009°13'0 0.0
2016-Aug-24 02:24N 44°19' E 009°13'0 0.0
2016-Aug-24 01:33N 44°19' E 009°13'0 0.0
2016-Aug-23 23:32N 44°19' E 009°13'0 0.0
2016-Aug-23 22:27N 44°19' E 009°13'0 0.0
2016-Aug-23 18:29N 44°19' E 009°13'0 0.0
2016-Aug-23 16:30N 44°19' E 009°13'0 0.0
2016-Aug-23 15:24N 44°19' E 009°13'0 0.0
2016-Aug-23 14:30N 44°19' E 009°13'0 0.0
2016-Aug-23 13:15N 44°19' E 009°13'5 7.5
2016-Aug-23 12:33N 44°17' E 009°20'8 1.6
2016-Aug-23 07:34N 44°13' E 009°29'1313.4
2016-Aug-23 06:34N 44°03' E 009°42'6 5.9
2016-Aug-23 05:34N 44°03' E 009°51'0 0.0
2016-Aug-23 04:31N 44°03' E 009°51'0 0.0
2016-Aug-23 03:31N 44°03' E 009°51'0 0.0
2016-Aug-23 02:28N 44°03' E 009°51'0 0.0
2016-Aug-23 01:31N 44°03' E 009°51'0 0.0
2016-Aug-23 00:31N 44°03' E 009°51'0 0.0
2016-Aug-22 23:31N 44°03' E 009°51'0 0.0
2016-Aug-22 22:31N 44°03' E 009°51'0 0.0
2016-Aug-22 21:28N 44°03' E 009°51'0 0.0
2016-Aug-22 20:31N 44°03' E 009°51'0 0.0
2016-Aug-22 19:31N 44°03' E 009°51'0 0.0
2016-Aug-22 18:31N 44°03' E 009°51'0 0.0
2016-Aug-22 17:31N 44°03' E 009°51'0 0.0
2016-Aug-22 16:31N 44°03' E 009°51'0 0.0
2016-Aug-22 15:31N 44°03' E 009°51'0 0.0
2016-Aug-22 14:22N 44°03' E 009°51'0 0.0
2016-Aug-22 13:31N 44°03' E 009°51'0 0.0
2016-Aug-22 12:31N 44°03' E 009°51'0 0.0
2016-Aug-22 11:31N 44°03' E 009°51'0 0.0
2016-Aug-22 10:31N 44°03' E 009°51'0 0.0
2016-Aug-22 09:31N 44°03' E 009°51'0 0.0
2016-Aug-22 08:31N 44°03' E 009°51'0 0.0
2016-Aug-22 07:31N 44°03' E 009°51'0 0.2
2016-Aug-22 06:33N 44°03' E 009°51'7 7.0
2016-Aug-22 05:34N 43°57' E 009°55'1313.3
2016-Aug-22 04:34N 43°44' E 009°48'1212.2
2016-Aug-22 03:33N 43°32' E 009°45'1211.8
2016-Aug-22 02:34N 43°21' E 009°46'1212.0
2016-Aug-22 01:34N 43°10' E 009°55'2511.7
2016-Aug-21 23:26N 42°56' E 010°23'1211.6
2016-Aug-21 22:26N 42°49' E 010°35'104 4.3
2016-Aug-20 22:33N 41°29' E 012°04'2813.6
2016-Aug-20 20:27N 41°07' E 012°28'5412.7
2016-Aug-20 16:13N 40°43' E 013°31'913.2
2016-Aug-20 15:34N 40°41' E 013°42'1312.8
2016-Aug-20 14:32N 40°39' E 013°60'1313.2
2016-Aug-20 13:33N 40°40' E 014°17'7 6.3
2016-Aug-20 12:28N 40°40' E 014°26'0 0.3
2016-Aug-20 11:32N 40°40' E 014°26'3 3.0
2016-Aug-20 10:23N 40°43' E 014°28'0 0.0
2016-Aug-20 09:17N 40°43' E 014°28'0 0.0
2016-Aug-20 08:29N 40°43' E 014°28'0 0.0
2016-Aug-20 07:29N 40°43' E 014°28'0 0.0
2016-Aug-20 06:29N 40°43' E 014°28'9 9.8
2016-Aug-20 05:33N 40°38' E 014°19'6 5.8
2016-Aug-20 04:31N 40°32' E 014°15'0 0.0
2016-Aug-20 03:32N 40°32' E 014°15'0 0.0
2016-Aug-20 02:31N 40°32' E 014°15'0 0.0
2016-Aug-20 00:31N 40°32' E 014°15'0 0.0
2016-Aug-19 23:31N 40°32' E 014°15'0 0.0
2016-Aug-19 22:32N 40°32' E 014°15'0 0.0
2016-Aug-19 21:28N 40°32' E 014°15'0 0.0
2016-Aug-19 20:28N 40°32' E 014°15'0 0.0
2016-Aug-19 17:28N 40°32' E 014°15'  

Dump ship's entire track history